createdAt,value
2022-12-31T00:02:04.962Z,4.93
2022-12-31T00:04:33.852Z,6.07
2022-12-31T00:07:03.149Z,6.40
2022-12-31T00:09:30.293Z,5.18
2022-12-31T00:12:01.480Z,5.27
2022-12-31T00:14:28.014Z,4.82
2022-12-31T00:16:54.631Z,8.50
2022-12-31T00:19:23.272Z,5.22
2022-12-31T00:21:50.925Z,5.65
2022-12-31T00:24:17.447Z,6.03
2022-12-31T00:26:44.021Z,6.53
2022-12-31T00:29:11.367Z,5.28
2022-12-31T00:31:40.962Z,5.78
2022-12-31T00:34:09.775Z,5.55
2022-12-31T00:36:39.410Z,4.70
2022-12-31T00:39:08.257Z,7.28
2022-12-31T00:41:35.202Z,8.25
2022-12-31T00:44:02.264Z,4.60
2022-12-31T00:46:31.943Z,5.10
2022-12-31T00:49:03.637Z,5.30
2022-12-31T00:51:31.183Z,3.80
2022-12-31T00:53:58.415Z,5.28
2022-12-31T00:56:27.024Z,9.05
2022-12-31T00:58:53.972Z,8.00
2022-12-31T01:01:23.052Z,6.57
2022-12-31T01:03:53.032Z,5.47
2022-12-31T01:06:19.694Z,6.47
2022-12-31T01:08:48.770Z,6.47
2022-12-31T01:11:19.588Z,5.65
2022-12-31T01:13:53.955Z,6.77
2022-12-31T01:16:24.435Z,6.85
2022-12-31T04:24:08.407Z,3.42
2022-12-31T04:26:35.271Z,4.83
2022-12-31T04:29:01.857Z,4.90
2022-12-31T04:31:28.559Z,5.13
2022-12-31T04:33:55.096Z,5.25
2022-12-31T04:36:21.850Z,4.25
2022-12-31T04:38:48.397Z,6.73
2022-12-31T04:41:18.842Z,6.18
2022-12-31T04:43:53.011Z,6.00
2022-12-31T04:46:22.771Z,6.13
2022-12-31T04:48:49.394Z,6.80
2022-12-31T04:51:16.076Z,6.60
2022-12-31T04:53:42.671Z,5.13
2022-12-31T04:56:09.852Z,5.55
2022-12-31T04:58:40.329Z,6.55
2022-12-31T05:01:07.333Z,4.88
2022-12-31T05:03:34.556Z,4.87
2022-12-31T05:06:03.222Z,4.72
2022-12-31T05:08:31.872Z,5.80
2022-12-31T05:11:01.937Z,4.97
2022-12-31T05:13:33.180Z,6.07
2022-12-31T05:16:01.121Z,7.47
2022-12-31T05:18:28.745Z,6.10
2022-12-31T05:20:55.841Z,5.32
2022-12-31T05:23:25.155Z,6.25
2022-12-31T05:25:53.984Z,5.47
2022-12-31T05:28:20.572Z,6.33
2022-12-31T05:30:51.019Z,6.18
2022-12-31T05:33:18.498Z,4.57
2022-12-31T05:35:45.821Z,4.38
2022-12-31T05:38:14.231Z,5.47
2022-12-31T05:40:40.774Z,6.50
2022-12-31T05:43:07.394Z,5.28
2022-12-31T05:45:33.941Z,7.38
2022-12-31T05:48:01.116Z,6.60
2022-12-31T05:50:27.769Z,4.03
2022-12-31T05:52:54.360Z,5.80
2022-12-31T05:55:21.054Z,5.45
2022-12-31T05:57:47.661Z,6.32
2022-12-31T06:00:14.754Z,7.00
2022-12-31T06:02:41.515Z,4.05
2022-12-31T06:05:08.691Z,5.97
2022-12-31T06:07:36.266Z,6.63
2022-12-31T06:10:02.854Z,4.85
2022-12-31T06:12:29.370Z,4.45
2022-12-31T06:14:55.931Z,6.72
2022-12-31T06:17:22.589Z,6.70
2022-12-31T06:19:49.134Z,6.10
2022-12-31T06:22:16.067Z,5.18
2022-12-31T06:24:43.056Z,6.47
2022-12-31T06:27:10.807Z,6.85
2022-12-31T06:29:37.478Z,4.77
2022-12-31T06:32:04.239Z,5.97
2022-12-31T06:34:32.254Z,5.55
2022-12-31T06:36:59.275Z,5.57
2022-12-31T06:39:26.392Z,5.80
2022-12-31T06:41:52.999Z,6.53
2022-12-31T06:44:22.264Z,6.00
2022-12-31T06:46:49.955Z,6.13
2022-12-31T06:49:16.728Z,7.20
2022-12-31T06:51:45.983Z,6.18
2022-12-31T06:54:13.239Z,5.83
2022-12-31T06:56:40.543Z,6.78
2022-12-31T06:59:24.143Z,6.38
2022-12-31T07:02:15.678Z,6.78
2022-12-31T07:04:51.935Z,5.93
2022-12-31T07:07:52.090Z,4.40
2022-12-31T07:10:52.166Z,5.82
2022-12-31T07:13:27.921Z,5.28
2022-12-31T07:16:01.780Z,5.65
2022-12-31T07:18:50.665Z,5.60
2022-12-31T07:21:20.093Z,5.30
2022-12-31T07:23:46.881Z,5.90
2022-12-31T07:26:24.641Z,5.28
2022-12-31T07:29:21.487Z,3.53
2022-12-31T07:32:07.169Z,5.05
2022-12-31T07:34:54.948Z,5.33
2022-12-31T07:37:39.519Z,6.22
2022-12-31T07:40:20.664Z,5.50
2022-12-31T07:43:11.696Z,2.97
2022-12-31T07:45:38.369Z,5.70
2022-12-31T07:48:18.903Z,3.73
2022-12-31T07:50:45.982Z,5.00
2022-12-31T07:53:18.301Z,5.57
2022-12-31T07:55:44.868Z,5.18
2022-12-31T07:58:43.047Z,3.90
2022-12-31T08:01:13.928Z,5.43
2022-12-31T08:04:08.529Z,4.70
2022-12-31T08:06:57.704Z,3.30
2022-12-31T08:09:26.849Z,4.20
2022-12-31T08:12:02.700Z,3.28
2022-12-31T08:14:31.495Z,4.20
2022-12-31T08:16:59.730Z,4.05
2022-12-31T08:19:31.371Z,3.58
2022-12-31T08:22:28.441Z,3.90
2022-12-31T08:25:12.736Z,3.30
2022-12-31T08:27:51.157Z,3.97
2022-12-31T08:30:21.799Z,4.13
2022-12-31T08:33:08.959Z,3.97
2022-12-31T08:36:04.820Z,3.72
2022-12-31T08:39:11.401Z,3.75
2022-12-31T08:41:54.261Z,3.93
2022-12-31T08:44:30.206Z,3.33
2022-12-31T08:46:56.729Z,3.50
2022-12-31T08:49:26.776Z,4.13
2022-12-31T08:51:55.292Z,3.50
2022-12-31T08:54:22.213Z,3.73
2022-12-31T08:57:03.721Z,3.78
2022-12-31T08:59:56.511Z,3.28
2022-12-31T09:02:44.620Z,3.65
2022-12-31T09:05:32.140Z,3.45
2022-12-31T09:07:59.609Z,3.70
2022-12-31T09:10:31.053Z,3.35
2022-12-31T09:13:12.417Z,3.33
2022-12-31T09:15:41.548Z,3.75
2022-12-31T09:18:09.785Z,4.03
2022-12-31T09:20:44.704Z,4.30
2022-12-31T09:23:13.182Z,3.80
2022-12-31T09:25:53.830Z,3.67
2022-12-31T09:28:38.773Z,4.00
2022-12-31T09:31:14.016Z,3.72
2022-12-31T09:34:02.987Z,3.60
2022-12-31T09:36:34.708Z,4.18
2022-12-31T09:39:25.680Z,3.83
2022-12-31T09:42:15.686Z,3.40
2022-12-31T09:45:07.486Z,3.30
2022-12-31T09:47:59.658Z,3.50
2022-12-31T09:50:35.329Z,3.80
2022-12-31T09:53:11.151Z,4.20
2022-12-31T09:55:45.063Z,3.90
2022-12-31T09:58:25.265Z,3.35
2022-12-31T10:00:54.679Z,3.77
2022-12-31T10:03:58.101Z,3.58
2022-12-31T10:06:28.656Z,3.03
2022-12-31T10:09:07.274Z,3.22
2022-12-31T10:12:14.365Z,4.05
2022-12-31T10:14:46.949Z,3.33
2022-12-31T10:17:28.201Z,3.33
2022-12-31T10:19:57.762Z,3.72
2022-12-31T10:22:42.680Z,4.57
2022-12-31T10:25:48.432Z,3.72
2022-12-31T10:28:27.300Z,4.37
2022-12-31T10:31:15.143Z,4.28
2022-12-31T10:33:44.524Z,5.43
2022-12-31T10:36:29.189Z,6.80
2022-12-31T10:39:01.510Z,5.50
2022-12-31T10:41:48.961Z,5.77
2022-12-31T10:44:21.526Z,6.60
2022-12-31T10:47:20.577Z,6.38
2022-12-31T10:50:12.016Z,4.93
2022-12-31T10:52:47.726Z,5.50
2022-12-31T10:55:35.849Z,4.87
2022-12-31T10:58:30.447Z,7.10
2022-12-31T11:01:09.020Z,6.18
2022-12-31T11:03:54.341Z,8.15
2022-12-31T11:06:51.886Z,6.28
2022-12-31T11:09:34.758Z,5.07
2022-12-31T11:12:35.016Z,7.13
2022-12-31T11:15:14.779Z,4.43
2022-12-31T11:18:09.059Z,4.72
2022-12-31T11:21:04.132Z,4.63
2022-12-31T11:24:17.502Z,7.43
2022-12-31T11:26:57.797Z,6.75
2022-12-31T11:29:40.714Z,7.85
2022-12-31T11:32:31.548Z,7.82
2022-12-31T11:35:54.786Z,7.07
2022-12-31T11:38:28.783Z,6.87
2022-12-31T11:41:35.889Z,7.03
2022-12-31T11:44:43.876Z,6.60
2022-12-31T11:48:32.460Z,7.30
2022-12-31T11:51:05.629Z,7.30
2022-12-31T11:54:08.734Z,6.33
2022-12-31T11:56:43.012Z,5.68
2022-12-31T11:59:18.840Z,5.55
2022-12-31T12:01:52.666Z,5.05
2022-12-31T12:04:19.532Z,5.85
2022-12-31T12:06:46.179Z,4.70
2022-12-31T12:09:26.981Z,4.72
2022-12-31T12:12:02.968Z,4.40
2022-12-31T12:14:36.324Z,4.05
2022-12-31T12:17:06.463Z,4.40
2022-12-31T12:19:34.086Z,4.97
2022-12-31T12:22:15.568Z,4.40
2022-12-31T12:25:01.671Z,5.32
2022-12-31T12:27:30.982Z,3.88
2022-12-31T12:29:58.260Z,4.82
2022-12-31T12:32:27.133Z,4.10
2022-12-31T12:34:54.155Z,3.25
2022-12-31T12:37:29.381Z,4.03
2022-12-31T12:40:03.458Z,4.25
2022-12-31T12:42:30.114Z,3.15
2022-12-31T12:45:21.085Z,5.13
2022-12-31T12:47:49.772Z,4.15
2022-12-31T12:50:22.186Z,5.00
2022-12-31T12:53:05.130Z,3.00
2022-12-31T12:56:07.008Z,5.63
2022-12-31T12:58:59.214Z,5.80
2022-12-31T13:01:34.165Z,4.47
2022-12-31T13:04:34.637Z,4.28
2022-12-31T13:07:58.283Z,2.90
2022-12-31T13:10:55.846Z,5.10
2022-12-31T13:13:43.182Z,6.80
2022-12-31T13:16:28.937Z,6.90
2022-12-31T13:19:35.052Z,6.03
2022-12-31T13:22:15.904Z,6.13
2022-12-31T13:24:51.250Z,6.57
2022-12-31T13:27:28.976Z,5.70
2022-12-31T13:29:59.771Z,5.70
2022-12-31T13:32:39.133Z,5.20
2022-12-31T13:35:22.432Z,5.00
2022-12-31T13:37:51.518Z,5.25
2022-12-31T13:40:28.042Z,4.03
2022-12-31T13:43:01.651Z,4.65
2022-12-31T13:45:32.071Z,3.10
2022-12-31T13:48:05.721Z,4.38
2022-12-31T13:51:08.905Z,4.85
2022-12-31T13:54:02.056Z,4.70
2022-12-31T13:56:33.801Z,5.10
2022-12-31T13:59:22.957Z,5.78
2022-12-31T14:01:58.297Z,6.18
2022-12-31T14:04:30.771Z,5.70
2022-12-31T14:07:11.562Z,6.30
2022-12-31T14:09:38.385Z,5.93
2022-12-31T14:12:29.894Z,6.35
2022-12-31T14:15:16.225Z,5.55
2022-12-31T14:17:48.189Z,5.00
2022-12-31T14:20:33.960Z,4.57
2022-12-31T14:23:42.971Z,5.05
2022-12-31T14:26:27.639Z,5.05
2022-12-31T14:29:12.514Z,4.63
2022-12-31T14:31:48.089Z,3.70
2022-12-31T14:34:33.423Z,3.77
2022-12-31T14:37:14.001Z,3.42
2022-12-31T14:40:23.941Z,3.75
2022-12-31T14:43:17.121Z,3.10
2022-12-31T14:45:52.628Z,3.72
2022-12-31T14:48:41.053Z,3.77
2022-12-31T14:51:07.944Z,4.10
2022-12-31T14:53:34.570Z,4.13
2022-12-31T14:56:06.834Z,3.97
2022-12-31T14:58:38.877Z,4.07
2022-12-31T15:01:19.805Z,5.10
2022-12-31T15:03:50.047Z,4.68
2022-12-31T15:06:22.775Z,4.22
2022-12-31T15:09:14.104Z,4.35
2022-12-31T15:11:55.797Z,3.53
2022-12-31T15:14:44.011Z,4.50
2022-12-31T15:17:28.327Z,4.60
2022-12-31T15:20:13.231Z,4.80
2022-12-31T15:22:47.866Z,3.72
2022-12-31T15:25:40.803Z,4.40
2022-12-31T15:28:42.433Z,4.47
2022-12-31T15:31:18.801Z,4.82
2022-12-31T15:34:01.176Z,4.70
2022-12-31T15:36:33.578Z,3.97
2022-12-31T15:39:12.250Z,3.97
2022-12-31T15:42:10.357Z,4.33
2022-12-31T15:44:42.589Z,3.65
2022-12-31T15:47:31.889Z,4.15
2022-12-31T15:50:03.552Z,3.53
2022-12-31T15:52:56.515Z,3.95
2022-12-31T15:55:31.038Z,4.20
2022-12-31T15:58:18.140Z,4.63
2022-12-31T16:01:10.174Z,4.25
2022-12-31T16:03:37.379Z,4.18
2022-12-31T16:06:10.628Z,4.45
2022-12-31T16:08:37.538Z,4.50
2022-12-31T16:11:05.383Z,4.30
2022-12-31T16:13:34.931Z,3.60
2022-12-31T16:16:07.538Z,3.80
2022-12-31T16:18:41.171Z,3.63
2022-12-31T16:21:34.989Z,4.33
2022-12-31T16:24:05.821Z,4.50
2022-12-31T16:26:46.873Z,4.47
2022-12-31T16:29:17.561Z,3.95
2022-12-31T16:31:45.909Z,3.47
2022-12-31T16:34:20.004Z,3.50
2022-12-31T16:36:59.878Z,4.10
2022-12-31T16:39:31.648Z,4.10
2022-12-31T16:42:13.457Z,3.00
2022-12-31T16:44:40.823Z,2.60
2022-12-31T16:47:16.333Z,2.80
2022-12-31T16:49:42.967Z,2.03
2022-12-31T16:52:30.553Z,2.00
2022-12-31T16:54:59.594Z,2.30
2022-12-31T16:57:29.106Z,1.65
2022-12-31T16:59:58.846Z,2.10
2022-12-31T17:02:46.905Z,2.03
2022-12-31T17:05:22.395Z,2.05
2022-12-31T17:07:49.416Z,1.83
2022-12-31T17:10:19.476Z,2.00
2022-12-31T17:15:43.337Z,1.52
2022-12-31T17:18:19.024Z,1.70
2022-12-31T17:20:46.105Z,2.60
2022-12-31T17:23:32.024Z,3.20
2022-12-31T17:26:12.118Z,2.40
2022-12-31T17:28:43.630Z,1.88
2022-12-31T17:31:30.577Z,1.60
2022-12-31T17:34:12.183Z,2.22
2022-12-31T17:36:40.870Z,1.40
2022-12-31T17:39:18.637Z,2.00
2022-12-31T17:41:47.249Z,1.90
2022-12-31T17:44:20.285Z,1.63
2022-12-31T17:46:48.561Z,1.60
2022-12-31T17:49:15.165Z,1.60
2022-12-31T17:51:47.387Z,6.90
2022-12-31T17:54:15.681Z,1.55
2022-12-31T17:56:42.753Z,1.48
2022-12-31T17:59:19.473Z,1.13
2022-12-31T18:01:46.146Z,1.40
2022-12-31T18:04:14.772Z,1.47
2022-12-31T18:06:41.775Z,1.10
2022-12-31T18:09:08.696Z,1.40
2022-12-31T18:11:36.496Z,1.15
2022-12-31T18:14:03.189Z,1.30
2022-12-31T18:16:29.959Z,1.33
2022-12-31T18:18:58.055Z,1.48
2022-12-31T18:21:34.823Z,1.20
2022-12-31T18:26:28.639Z,2.05
2022-12-31T18:28:55.496Z,4.50
2022-12-31T18:31:27.181Z,1.10
2022-12-31T18:33:55.459Z,1.80
2022-12-31T18:36:23.556Z,1.50
2022-12-31T18:38:50.232Z,1.15
2022-12-31T18:41:28.794Z,1.20
2022-12-31T18:43:55.570Z,1.10
2022-12-31T18:46:24.228Z,1.20
2022-12-31T18:48:51.096Z,1.30
2022-12-31T18:51:20.167Z,1.48
2022-12-31T18:53:46.802Z,1.57
2022-12-31T18:56:16.107Z,1.85
2022-12-31T18:58:44.850Z,1.23
2022-12-31T19:01:31.528Z,1.70
2022-12-31T19:04:03.242Z,1.58
2022-12-31T19:06:31.112Z,1.50
2022-12-31T19:09:00.667Z,1.40
2022-12-31T19:11:27.668Z,1.77
2022-12-31T19:13:54.206Z,1.30
2022-12-31T19:16:21.017Z,1.17
2022-12-31T19:18:49.050Z,1.20
2022-12-31T19:21:20.645Z,1.50
2022-12-31T19:23:47.221Z,1.60
2022-12-31T19:26:19.260Z,1.48
2022-12-31T19:28:46.625Z,1.50
2022-12-31T19:31:14.062Z,1.70
2022-12-31T19:33:41.059Z,1.30
2022-12-31T19:36:14.604Z,3.05
2022-12-31T19:38:41.457Z,4.38
2022-12-31T19:41:15.033Z,5.70
2022-12-31T19:43:41.832Z,2.20
2022-12-31T19:46:15.887Z,7.93
2022-12-31T19:48:42.726Z,7.07
2022-12-31T19:51:16.592Z,2.20
2022-12-31T19:53:43.386Z,2.45
2022-12-31T19:56:19.417Z,2.93
2022-12-31T19:58:46.180Z,2.05
2022-12-31T20:01:19.234Z,2.60
2022-12-31T20:03:46.167Z,1.60
2022-12-31T20:06:15.100Z,1.80
2022-12-31T20:08:44.699Z,38.03
2022-12-31T20:11:22.005Z,4.93
2022-12-31T20:13:49.805Z,3.95
2022-12-31T20:16:18.429Z,1.88
2022-12-31T20:18:47.334Z,2.38
2022-12-31T20:21:22.651Z,1.97
2022-12-31T20:23:50.333Z,5.85
2022-12-31T20:26:18.121Z,10.20
2022-12-31T20:28:44.804Z,1.50
2022-12-31T20:31:14.762Z,3.58
2022-12-31T20:33:42.083Z,1.90
2022-12-31T20:36:10.932Z,1.95
2022-12-31T20:38:38.732Z,1.80
2022-12-31T20:41:07.985Z,1.75
2022-12-31T20:43:34.744Z,1.35
2022-12-31T20:46:14.756Z,0.80
2022-12-31T20:48:42.102Z,9.88
2022-12-31T20:51:08.950Z,3.42
2022-12-31T20:53:35.590Z,2.00
2022-12-31T20:56:06.052Z,1.63
2022-12-31T20:58:35.277Z,1.43
2022-12-31T21:01:02.034Z,1.63
2022-12-31T21:04:03.734Z,3.15
2022-12-31T21:06:18.438Z,2.80
2022-12-31T21:08:45.437Z,2.55
2022-12-31T21:11:35.882Z,1.70
2022-12-31T21:14:02.736Z,1.50
2022-12-31T21:16:29.347Z,4.07
2022-12-31T21:18:56.145Z,13.82
2022-12-31T21:21:22.885Z,19.23
2022-12-31T21:23:49.609Z,6.57
2022-12-31T21:26:16.499Z,4.00
2022-12-31T21:28:43.074Z,3.28
2022-12-31T21:31:12.500Z,4.20
2022-12-31T21:33:39.380Z,5.32
2022-12-31T21:36:06.080Z,6.20
2022-12-31T21:38:32.628Z,7.00
2022-12-31T21:41:03.710Z,5.20
2022-12-31T21:43:30.310Z,5.18
2022-12-31T21:46:05.769Z,5.45
2022-12-31T21:48:33.014Z,5.10
2022-12-31T21:51:12.865Z,3.28
2022-12-31T21:53:40.155Z,3.33
2022-12-31T21:56:11.118Z,4.05
2022-12-31T21:58:39.967Z,7.90
2022-12-31T22:01:25.670Z,6.77
2022-12-31T22:03:52.673Z,3.95
2022-12-31T22:06:22.408Z,2.60
2022-12-31T22:08:54.249Z,2.40
2022-12-31T22:11:23.008Z,2.33
2022-12-31T22:13:52.586Z,1.97
2022-12-31T22:16:20.306Z,2.28
2022-12-31T22:18:47.772Z,2.53
2022-12-31T22:21:19.312Z,1.60
2022-12-31T22:23:48.678Z,2.50
2022-12-31T22:26:17.030Z,1.47
2022-12-31T22:28:44.398Z,0.98
2022-12-31T22:31:16.242Z,1.30
2022-12-31T22:33:43.513Z,3.53
2022-12-31T22:36:15.449Z,2.95
2022-12-31T22:38:42.615Z,1.33
2022-12-31T22:41:11.713Z,16.60
2022-12-31T22:43:40.764Z,7.53
2022-12-31T22:46:16.066Z,1.30
2022-12-31T22:48:43.243Z,2.15
2022-12-31T22:51:11.080Z,4.10
2022-12-31T22:53:40.508Z,2.15
2022-12-31T22:56:07.891Z,8.65
2022-12-31T22:58:34.616Z,10.20
2022-12-31T23:01:07.428Z,29.50
2022-12-31T23:03:34.373Z,57.93
2022-12-31T23:06:01.141Z,55.03
2022-12-31T23:08:27.824Z,88.78
2022-12-31T23:11:00.542Z,81.63
2022-12-31T23:13:50.607Z,54.25
2022-12-31T23:16:37.661Z,43.20
2022-12-31T23:19:24.051Z,47.75
2022-12-31T23:22:09.967Z,25.35
2022-12-31T23:24:36.991Z,27.23
2022-12-31T23:27:03.675Z,86.65
2022-12-31T23:29:30.212Z,32.40
2022-12-31T23:31:57.681Z,6.82
2022-12-31T23:34:24.253Z,4.53
2022-12-31T23:36:53.373Z,4.97
2022-12-31T23:39:20.020Z,3.97
2022-12-31T23:41:46.893Z,3.50
2022-12-31T23:44:13.452Z,4.72
2022-12-31T23:46:40.528Z,3.42
2022-12-31T23:49:07.098Z,3.45
2022-12-31T23:51:37.204Z,3.78
2022-12-31T23:54:05.203Z,3.87
2022-12-31T23:56:33.018Z,3.78
2022-12-31T23:59:02.285Z,4.10
